Time;durP1;ratioP1;P1;durP2;ratioP2;P2;SDS_P1;SDS_P2;PMS_P1;PMS_P2;Temp;Humidity;BMP_temperature;BMP_pressure;BME280_temperature;BME280_humidity;BME280_pressure;Samples;Min_cycle;Max_cycle;Signal;HPM_P1;HPM_P2
2022/12/10 00:00:40;;;;;;;16.25;7.50;;;;;;;-6.84;74.40;100487.41;4967332;28;20055;-82
2022/12/10 00:03:28;;;;;;;;;;;;;;;;;;;;;
2022/12/10 00:06:26;;;;;;;20.77;10.30;;;;;;;-7.09;73.39;100491.06;4855978;28;20272;-81
2022/12/10 00:09:01;;;;;;;17.50;8.40;;;;;;;-7.22;73.43;100488.63;4933959;28;20067;-81
2022/12/10 00:11:34;;;;;;;17.38;9.05;;;;;;;-7.25;73.60;100488.44;4955426;28;20040;-81
2022/12/10 00:14:10;;;;;;;26.77;12.98;;;;;;;-7.33;73.70;100489.66;4951777;28;20098;-81
2022/12/10 00:16:50;;;;;;;33.15;13.80;;;;;;;-7.25;73.89;100493.53;4937688;28;20043;-82
2022/12/10 00:19:29;;;;;;;17.05;8.90;;;;;;;-7.08;73.94;100487.75;4933573;28;20271;-81
2022/12/10 00:22:01;;;;;;;29.83;14.38;;;;;;;-7.14;73.94;100443.34;4947444;28;20044;-83
2022/12/10 00:24:38;;;;;;;24.13;11.77;;;;;;;-6.84;73.88;100477.22;4954334;28;20040;-82
2022/12/10 00:27:10;;;;;;;22.52;10.20;;;;;;;-6.80;73.33;100471.53;4949546;28;20402;-80
2022/12/10 00:29:43;;;;;;;19.15;8.40;;;;;;;-6.68;73.28;100474.78;4963842;28;20056;-80
2022/12/10 00:32:17;;;;;;;21.80;10.00;;;;;;;-6.48;73.30;100477.56;4945152;28;20054;-80
2022/12/10 00:34:51;;;;;;;21.40;9.48;;;;;;;-6.48;73.20;100452.13;4959110;28;20075;-80
2022/12/10 00:37:24;;;;;;;29.77;12.93;;;;;;;-6.21;72.90;100461.25;4961549;28;20043;-81
2022/12/10 00:40:06;;;;;;;35.28;16.65;;;;;;;-6.11;72.89;100443.13;4949872;28;20044;-80
2022/12/10 00:42:43;;;;;;;69.35;30.15;;;;;;;-5.93;72.59;100455.06;4926040;28;20336;-82
2022/12/10 00:45:16;;;;;;;56.83;23.33;;;;;;;-5.91;72.09;100453.47;4951411;28;20054;-81
2022/12/10 00:47:49;;;;;;;24.10;11.82;;;;;;;-5.90;71.91;100447.56;4954147;28;20407;-81
2022/12/10 00:50:28;;;;;;;21.52;11.27;;;;;;;-6.04;71.59;100421.47;4962909;28;20056;-81
2022/12/10 00:53:01;;;;;;;29.92;15.52;;;;;;;-6.11;71.67;100404.97;4946092;28;20078;-81
2022/12/10 00:55:39;;;;;;;27.30;14.52;;;;;;;-5.84;71.38;100435.19;4960234;28;20088;-83
2022/12/10 00:58:20;;;;;;;26.33;12.02;;;;;;;-5.52;71.47;100439.34;4950578;28;20107;-81
2022/12/10 01:00:56;;;;;;;23.60;10.85;;;;;;;-5.26;70.45;100433.03;4947265;28;20240;-81
2022/12/10 01:03:41;;;;;;;19.83;9.95;;;;;;;-5.06;70.35;100425.50;4918078;28;20048;-81
2022/12/10 01:06:15;;;;;;;;;;;;;;;-4.86;69.88;100427.34;4938333;28;20059;-81
2022/12/10 01:08:49;;;;;;;17.25;8.88;;;;;;;-4.80;69.02;100414.00;4935732;28;19956;-83
2022/12/10 01:11:30;;;;;;;14.40;8.02;;;;;;;-4.88;69.11;100408.53;4943486;28;20127;-80
2022/12/10 01:14:03;;;;;;;15.95;8.30;;;;;;;-4.82;69.19;100413.94;4939313;28;20099;-81
2022/12/10 01:16:39;;;;;;;19.42;8.55;;;;;;;-5.08;69.37;100402.47;4960128;28;20039;-82
2022/12/10 01:19:12;;;;;;;15.40;8.57;;;;;;;-4.95;70.07;100388.66;4932619;28;20051;-81
2022/12/10 01:21:52;;;;;;;20.88;8.93;;;;;;;-4.92;70.13;100388.78;4945902;28;20474;-81
2022/12/10 01:24:32;;;;;;;18.02;9.80;;;;;;;-4.85;70.21;100385.75;4945423;28;20048;-81
2022/12/10 01:27:09;;;;;;;18.30;8.95;;;;;;;-5.23;69.55;100331.28;4948718;28;20043;-81
2022/12/10 01:29:43;;;;;;;26.60;13.63;;;;;;;-4.94;70.47;100372.59;4943224;28;20103;-82
2022/12/10 01:32:19;;;;;;;18.67;10.18;;;;;;;-5.01;70.16;100332.31;4948614;28;20057;-82
2022/12/10 01:34:55;;;;;;;39.38;14.25;;;;;;;-5.05;69.50;100297.28;4948043;28;20051;-82
2022/12/10 01:37:31;;;;;;;20.67;9.85;;;;;;;-4.55;68.80;100354.81;4936447;28;20043;-82
2022/12/10 01:40:07;;;;;;;16.88;8.85;;;;;;;-4.61;68.34;100339.25;4960347;28;20047;-81
2022/12/10 01:42:43;;;;;;;17.55;8.18;;;;;;;-4.82;68.00;100327.28;4949783;28;20047;-81
2022/12/10 01:45:18;;;;;;;20.23;8.80;;;;;;;-4.68;68.12;100333.00;4960471;28;20060;-82
2022/12/10 01:47:53;;;;;;;19.75;9.73;;;;;;;-4.48;67.85;100330.47;4957110;28;20054;-82
2022/12/10 01:50:25;;;;;;;20.98;10.85;;;;;;;-4.26;67.55;100327.22;4937197;28;20056;-81
2022/12/10 01:52:59;;;;;;;16.65;8.88;;;;;;;-4.19;67.06;100280.75;4947716;28;20037;-81
2022/12/10 01:55:51;;;;;;;16.55;8.45;;;;;;;-3.77;66.63;100293.56;4962030;28;20036;-81
2022/12/10 01:58:30;;;;;;;19.42;9.60;;;;;;;-3.28;65.81;100321.13;4935531;28;20052;-81
2022/12/10 02:01:14;;;;;;;21.95;10.63;;;;;;;-3.00;64.87;100304.31;4943285;28;20051;-81
2022/12/10 02:04:09;;;;;;;223.43;89.20;;;;;;;-2.83;64.09;100295.59;4928971;28;20410;-81
2022/12/10 02:06:52;;;;;;;92.22;42.88;;;;;;;-2.63;64.16;100297.22;4943570;28;20073;-82
2022/12/10 02:09:37;;;;;;;20.92;11.07;;;;;;;-2.44;63.95;100295.34;4940717;28;20165;-82
2022/12/10 02:12:17;;;;;;;22.52;10.75;;;;;;;-2.22;63.14;100302.97;4948610;28;20069;-81
2022/12/10 02:15:08;;;;;;;22.17;11.35;;;;;;;-2.24;63.22;100279.00;4925342;28;20040;-81
2022/12/10 02:17:45;;;;;;;21.35;9.82;;;;;;;-2.20;62.66;100286.00;4940375;28;20047;-81
2022/12/10 02:20:22;;;;;;;23.85;11.27;;;;;;;-1.97;64.49;100288.47;4938563;28;20054;-81
2022/12/10 02:23:02;;;;;;;24.85;11.50;;;;;;;-1.98;63.13;100287.59;4946475;28;20438;-81
2022/12/10 02:25:46;;;;;;;20.80;10.73;;;;;;;-2.38;62.71;100280.19;4937752;28;20044;-81
2022/12/10 02:28:29;;;;;;;20.30;10.18;;;;;;;-2.51;63.71;100237.09;4947847;28;20051;-81
2022/12/10 02:31:10;;;;;;;20.83;10.18;;;;;;;-2.46;62.68;100281.63;4944285;28;20043;-81
2022/12/10 02:33:52;;;;;;;21.80;10.80;;;;;;;-2.54;63.01;100277.91;4944788;28;20067;-81
2022/12/10 02:36:28;;;;;;;24.33;11.73;;;;;;;-2.68;63.19;100275.69;4934242;28;20070;-81
2022/12/10 02:39:05;;;;;;;23.95;11.85;;;;;;;-2.83;63.95;100270.03;4936346;28;20064;-83
2022/12/10 02:41:43;;;;;;;28.67;12.48;;;;;;;-3.10;64.78;100250.25;4948827;28;20086;-81
2022/12/10 02:44:18;;;;;;;24.73;12.55;;;;;;;-3.00;65.48;100265.97;4961306;28;20112;-84
2022/12/10 02:46:57;;;;;;;25.88;11.75;;;;;;;-3.16;64.84;100250.03;4941729;28;20387;-80
2022/12/10 02:49:33;;;;;;;26.42;13.43;;;;;;;-3.00;65.27;100265.97;4938353;28;20039;-80
2022/12/10 02:52:10;;;;;;;24.60;12.60;;;;;;;-3.08;65.45;100228.19;4944459;28;20052;-79
2022/12/10 02:54:45;;;;;;;26.83;13.30;;;;;;;-2.77;65.27;100270.28;4927406;28;20218;-82
2022/12/10 02:57:44;;;;;;;27.65;13.55;;;;;;;-2.78;65.12;100253.16;4932340;28;20049;-80
2022/12/10 03:00:20;;;;;;;30.67;13.52;;;;;;;-2.88;65.12;100226.38;4925634;28;20364;-80
2022/12/10 03:03:15;;;;;;;33.20;14.73;;;;;;;-2.68;65.02;100249.25;4957397;28;20051;-81
2022/12/10 03:05:55;;;;;;;35.05;11.55;;;;;;;-2.62;65.63;100250.38;4924210;28;20045;-81
2022/12/10 03:08:35;;;;;;;20.88;10.27;;;;;;;-2.74;64.89;100252.47;4945377;28;20049;-80
2022/12/10 03:11:14;;;;;;;17.92;8.95;;;;;;;-2.81;65.19;100247.94;4951747;28;20053;-80
2022/12/10 03:13:55;;;;;;;14.85;7.32;;;;;;;-2.81;65.49;100253.06;4957086;28;20061;-80
2022/12/10 03:16:34;;;;;;;15.35;7.35;;;;;;;-2.82;65.95;100256.44;4937792;28;20067;-82
2022/12/10 03:19:17;;;;;;;21.42;7.93;;;;;;;-2.84;65.68;100248.69;4948894;28;20094;-81
2022/12/10 03:21:53;;;;;;;17.98;9.88;;;;;;;-2.64;66.35;100252.00;4939758;28;20040;-82
2022/12/10 03:24:35;;;;;;;17.05;7.88;;;;;;;-2.47;66.51;100249.16;4935816;28;20060;-82
2022/12/10 03:27:11;;;;;;;16.95;8.30;;;;;;;-2.71;65.52;100219.34;4914389;28;20293;-81
2022/12/10 03:29:49;;;;;;;16.23;8.00;;;;;;;-2.54;65.40;100232.72;4944658;28;20055;-82
2022/12/10 03:32:26;;;;;;;17.50;7.97;;;;;;;-2.43;65.46;100240.78;4944178;28;20044;-82
2022/12/10 03:35:02;;;;;;;19.05;9.05;;;;;;;-2.34;65.46;100245.38;4945060;28;20077;-82
2022/12/10 03:37:39;;;;;;;22.40;10.63;;;;;;;-2.21;66.04;100232.16;4949845;28;20053;-81
2022/12/10 03:40:14;;;;;;;22.15;10.70;;;;;;;-2.11;65.31;100248.72;4959384;28;20077;-81
2022/12/10 03:42:49;;;;;;;24.27;11.35;;;;;;;-2.11;65.40;100248.72;4945660;28;20064;-81
2022/12/10 03:45:22;;;;;;;23.27;12.32;;;;;;;-2.18;65.35;100235.69;4954187;28;20304;-81
2022/12/10 03:47:56;;;;;;;29.23;13.13;;;;;;;-2.08;65.35;100233.44;4941525;28;20363;-81
2022/12/10 03:50:37;;;;;;;26.73;13.65;;;;;;;-2.12;64.60;100242.72;4933904;28;20079;-81
2022/12/10 03:53:11;;;;;;;31.10;14.82;;;;;;;-2.27;65.24;100235.41;4936099;28;20260;-81
2022/12/10 03:55:50;;;;;;;34.47;17.30;;;;;;;-2.08;65.80;100238.56;4940116;28;20180;-81
2022/12/10 03:58:23;;;;;;;36.85;17.13;;;;;;;-2.10;64.79;100224.84;4941185;28;20040;-82
2022/12/10 04:01:01;;;;;;;32.92;16.88;;;;;;;-2.05;65.25;100228.44;4951361;28;20044;-81
2022/12/10 04:03:37;;;;;;;35.95;18.27;;;;;;;-2.02;64.92;100202.91;4945337;28;20046;-81
2022/12/10 04:06:16;;;;;;;40.28;19.35;;;;;;;-1.83;65.07;100230.88;4948933;28;20055;-81
2022/12/10 04:08:51;;;;;;;37.10;19.20;;;;;;;-1.89;64.66;100224.72;4939062;28;20071;-81
2022/12/10 04:11:29;;;;;;;43.40;20.25;;;;;;;-2.02;64.88;100218.28;4941222;28;20113;-80
2022/12/10 04:16:51;;;;;;;48.03;22.27;;;;;;;-2.06;65.01;100216.47;4959991;28;20051;-81
2022/12/10 04:19:25;;;;;;;51.08;22.77;;;;;;;-2.04;65.33;100214.81;4958716;28;20055;-81
2022/12/10 04:27:44;;;;;;;80.13;34.47;;;;;;;-1.98;65.73;100217.59;4945738;28;20047;-82
2022/12/10 04:30:18;;;;;;;68.40;29.65;;;;;;;-2.04;65.12;100219.94;4948873;28;20534;-82
2022/12/10 04:32:52;;;;;;;52.53;24.90;;;;;;;-2.13;65.58;100219.63;4945804;28;20052;-81
2022/12/10 04:35:28;;;;;;;61.25;27.92;;;;;;;-2.30;66.00;100191.75;4950109;28;20489;-82
2022/12/10 04:38:04;;;;;;;92.75;34.78;;;;;;;-2.25;65.74;100222.63;4945462;28;20048;-82
2022/12/10 04:40:38;;;;;;;70.72;28.65;;;;;;;-2.24;66.58;100221.84;4951675;28;20095;-81
2022/12/10 04:43:13;;;;;;;56.30;25.75;;;;;;;-2.28;66.21;100202.91;4949692;28;20287;-81
2022/12/10 04:45:46;;;;;;;53.97;25.75;;;;;;;-2.34;66.17;100223.19;4939383;28;20052;-82
2022/12/10 04:48:19;;;;;;;58.70;25.17;;;;;;;-2.33;66.89;100217.25;4940118;28;20414;-82
2022/12/10 04:50:52;;;;;;;54.60;25.42;;;;;;;-2.36;66.92;100214.59;4958709;28;20051;-81
2022/12/10 04:53:28;;;;;;;58.42;26.75;;;;;;;-2.28;67.24;100222.53;4957272;28;20039;-82
2022/12/10 04:56:04;;;;;;;61.15;27.55;;;;;;;-2.32;67.25;100219.00;4944102;28;20043;-81
2022/12/10 04:58:40;;;;;;;62.42;28.80;;;;;;;-2.35;66.84;100231.69;4959357;28;20057;-81
2022/12/10 05:01:17;;;;;;;60.33;27.60;;;;;;;-2.39;67.34;100217.06;4949918;28;20063;-81
2022/12/10 05:03:54;;;;;;;68.32;29.92;;;;;;;-2.38;67.74;100226.47;4926972;28;20041;-82
2022/12/10 05:06:31;;;;;;;62.78;29.73;;;;;;;-2.38;67.88;100224.75;4931714;28;20115;-81
2022/12/10 05:09:07;;;;;;;63.75;31.17;;;;;;;-2.48;68.10;100216.72;4948109;28;20055;-82
2022/12/10 05:11:47;;;;;;;62.90;30.25;;;;;;;-2.41;68.24;100218.69;4940265;28;20048;-81
2022/12/10 05:14:24;;;;;;;65.15;29.67;;;;;;;-2.41;68.74;100223.81;4945002;28;20039;-81
2022/12/10 05:17:00;;;;;;;62.30;29.67;;;;;;;-2.37;68.57;100225.66;4940438;28;20444;-81
2022/12/10 05:19:35;;;;;;;64.93;30.05;;;;;;;-2.52;68.09;100214.84;4957097;28;20039;-81
2022/12/10 05:25:01;;;;;;;65.68;29.27;;;;;;;-2.75;67.91;100232.81;4940139;28;20056;-80
2022/12/10 05:27:39;;;;;;;56.47;26.13;;;;;;;-2.75;68.70;100232.81;4936168;28;20109;-83
2022/12/10 05:30:13;;;;;;;53.28;24.20;;;;;;;-2.76;69.11;100236.19;4925363;28;20048;-80
2022/12/10 05:32:48;;;;;;;65.30;32.90;;;;;;;-2.88;69.00;100225.50;4932458;28;20321;-80
2022/12/10 05:35:20;;;;;;;73.13;37.72;;;;;;;-2.82;69.40;100235.97;4950068;28;20106;-81
2022/12/10 05:37:54;;;;;;;48.13;22.85;;;;;;;-3.00;69.21;100215.69;4944669;28;20043;-82
2022/12/10 05:40:30;;;;;;;38.25;18.42;;;;;;;-2.98;69.23;100233.66;4930751;28;20059;-81
2022/12/10 05:43:03;;;;;;;37.03;17.55;;;;;;;-2.96;69.62;100226.91;4956299;28;20061;-82
2022/12/10 05:45:40;;;;;;;40.38;16.90;;;;;;;-3.08;70.02;100228.19;4945701;28;20049;-81
2022/12/10 05:48:14;;;;;;;37.75;17.73;;;;;;;-3.16;69.82;100214.25;4946422;28;20058;-80
2022/12/10 05:50:48;;;;;;;235.57;67.82;;;;;;;-3.12;69.43;100236.56;4941704;28;20045;-81
2022/12/10 05:53:20;;;;;;;122.55;41.00;;;;;;;-3.25;69.69;100236.91;4939684;28;20103;-81
2022/12/10 05:56:04;;;;;;;58.97;23.73;;;;;;;-3.50;69.44;100212.94;4952832;28;20039;-81
2022/12/10 05:58:38;;;;;;;38.63;16.58;;;;;;;-3.37;70.15;100244.09;4939461;28;20053;-81
2022/12/10 06:01:21;;;;;;;35.15;17.55;;;;;;;-3.39;70.63;100250.84;4957572;28;20077;-81
2022/12/10 06:04:05;;;;;;;38.10;17.20;;;;;;;-3.40;70.52;100243.97;4945903;28;20343;-81
2022/12/10 06:06:49;;;;;;;35.92;15.95;;;;;;;-3.42;70.65;100245.59;4949126;28;20343;-81
2022/12/10 06:09:32;;;;;;;41.85;14.93;;;;;;;-3.45;70.53;100245.47;4950788;28;20118;-81
2022/12/10 06:12:23;;;;;;;37.35;15.35;;;;;;;-3.70;70.72;100217.25;4937672;28;20047;-81
2022/12/10 06:15:09;;;;;;;49.15;23.90;;;;;;;-3.48;71.14;100251.34;4938922;28;20432;-80
2022/12/10 06:17:51;;;;;;;45.80;20.85;;;;;;;-3.72;70.95;100243.56;4945801;28;20055;-81
2022/12/10 06:20:34;;;;;;;58.78;26.27;;;;;;;-3.88;70.76;100256.50;4945721;28;20057;-81
2022/12/10 06:23:24;;;;;;;46.22;21.58;;;;;;;-4.20;71.14;100256.88;4943802;28;20110;-81
2022/12/10 06:26:08;;;;;;;44.95;19.52;;;;;;;-4.77;71.98;100220.41;4930195;28;20064;-82
2022/12/10 06:28:54;;;;;;;36.28;17.25;;;;;;;-4.84;72.51;100229.47;4934662;28;20048;-80
2022/12/10 06:31:40;;;;;;;40.25;16.98;;;;;;;-4.88;73.01;100250.53;4943467;28;20112;-82
2022/12/10 06:34:23;;;;;;;37.88;16.63;;;;;;;-4.93;73.74;100239.25;4938534;28;20213;-80
2022/12/10 06:37:05;;;;;;;43.30;17.85;;;;;;;-4.70;74.23;100262.34;4931052;28;20303;-80
2022/12/10 06:39:49;;;;;;;37.42;17.27;;;;;;;-4.84;75.16;100237.13;4935182;28;20439;-81
2022/12/10 06:42:32;;;;;;;35.90;17.10;;;;;;;-4.65;75.25;100276.16;4936008;28;20344;-79
2022/12/10 06:45:19;;;;;;;38.65;16.50;;;;;;;-4.71;75.47;100281.00;4928772;28;20051;-80
2022/12/10 06:48:03;;;;;;;42.72;19.95;;;;;;;-4.96;75.30;100254.41;4923765;28;20261;-81
2022/12/10 06:50:46;;;;;;;33.95;16.75;;;;;;;-5.03;74.89;100268.53;4932742;28;20119;-81
2022/12/10 06:53:28;;;;;;;41.20;18.13;;;;;;;-5.20;75.22;100260.09;4938041;28;20099;-81
2022/12/10 06:56:13;;;;;;;38.17;17.98;;;;;;;-5.18;75.78;100266.97;4937769;28;20426;-81
2022/12/10 06:58:49;;;;;;;44.13;17.90;;;;;;;-5.05;75.66;100294.75;4934789;28;20116;-82
2022/12/10 07:01:25;;;;;;;41.05;18.27;;;;;;;-5.22;75.70;100271.91;4941222;28;20331;-81
2022/12/10 07:03:57;;;;;;;44.53;19.23;;;;;;;-5.10;76.21;100286.88;4951097;28;20053;-81
2022/12/10 07:06:33;;;;;;;39.70;18.70;;;;;;;-5.14;76.50;100273.91;4945578;28;20422;-81
2022/12/10 07:09:04;;;;;;;41.75;19.33;;;;;;;-4.96;77.14;100279.88;4938914;28;20058;-80
2022/12/10 07:11:35;;;;;;;35.97;17.73;;;;;;;-4.81;77.31;100288.22;4936308;28;20050;-79
2022/12/10 07:14:09;;;;;;;35.50;17.77;;;;;;;-4.80;76.80;100297.59;4947301;28;20045;-79
2022/12/10 07:16:44;;;;;;;54.58;21.17;;;;;;;-4.74;76.87;100296.13;4960467;28;20089;-79
2022/12/10 07:19:18;;;;;;;49.83;22.75;;;;;;;-4.77;76.65;100301.97;4958502;28;20069;-80
2022/12/10 07:21:57;;;;;;;52.83;21.25;;;;;;;-4.73;76.75;100308.09;4949704;28;20135;-80
2022/12/10 07:24:46;;;;;;;70.43;26.15;;;;;;;-4.72;77.37;100304.72;4951684;28;20051;-80
2022/12/10 07:27:18;;;;;;;86.35;29.02;;;;;;;-4.70;77.29;100313.34;4953078;28;20058;-80
2022/12/10 07:29:49;;;;;;;89.70;31.75;;;;;;;-4.78;76.48;100306.19;4957459;28;20264;-80
2022/12/10 07:32:24;;;;;;;53.72;21.88;;;;;;;-4.77;76.39;100307.97;4949517;28;20055;-81
2022/12/10 07:34:55;;;;;;;59.03;21.85;;;;;;;-4.77;76.10;100323.25;4956194;28;20047;-79
2022/12/10 07:37:30;;;;;;;39.88;17.10;;;;;;;-4.78;76.34;100316.41;4952463;28;20045;-79
2022/12/10 07:40:01;;;;;;;39.35;16.95;;;;;;;-4.80;76.23;100317.13;4938798;28;20044;-79
2022/12/10 07:42:33;;;;;;;55.83;22.50;;;;;;;-4.74;76.49;100311.44;4928053;28;20324;-79
2022/12/10 07:45:05;;;;;;;45.45;21.65;;;;;;;-4.71;76.21;100316.69;4927903;28;20051;-79
2022/12/10 07:47:43;;;;;;;40.00;17.38;;;;;;;-4.69;76.47;100320.16;4935407;28;20054;-80
2022/12/10 07:50:22;;;;;;;36.67;16.50;;;;;;;-4.74;76.45;100311.44;4928533;28;20039;-80
2022/12/10 07:53:02;;;;;;;28.63;14.10;;;;;;;-4.95;77.01;100286.72;4929671;28;20044;-79
2022/12/10 07:55:33;;;;;;;28.10;11.70;;;;;;;-4.80;76.91;100318.00;4935789;28;20263;-80
2022/12/10 07:58:07;;;;;;;23.27;11.60;;;;;;;-4.77;77.02;100323.25;4926665;28;20333;-80
2022/12/10 08:00:41;;;;;;;29.23;12.50;;;;;;;-4.77;76.98;100318.16;4915367;28;20072;-79
2022/12/10 08:03:14;;;;;;;22.02;10.10;;;;;;;-4.83;76.28;100322.09;4923318;28;20336;-81
2022/12/10 08:05:45;;;;;;;22.90;11.02;;;;;;;-4.86;76.04;100322.84;4925764;28;20090;-80
2022/12/10 08:08:16;;;;;;;36.20;15.20;;;;;;;-4.91;75.92;100324.28;4925205;28;20058;-81
2022/12/10 08:10:59;;;;;;;38.15;17.55;;;;;;;-4.98;76.51;100324.81;4931097;28;20065;-80
2022/12/10 08:13:34;;;;;;;42.45;17.13;;;;;;;-4.98;76.33;100322.25;4919041;28;20101;-78
2022/12/10 08:16:11;;;;;;;39.88;18.77;;;;;;;-5.18;75.85;100307.72;4915833;28;20072;-78
2022/12/10 08:18:50;;;;;;;43.17;18.65;;;;;;;-5.30;75.94;100305.44;4926070;28;20036;-79
2022/12/10 08:21:34;;;;;;;53.65;21.60;;;;;;;-5.39;75.94;100333.91;4917447;28;20050;-81
2022/12/10 08:24:12;;;;;;;39.15;17.92;;;;;;;-5.47;76.22;100325.88;4915586;28;20052;-82
2022/12/10 08:33:04;;;;;;;35.30;15.07;;;;;;;-6.00;75.93;100341.06;4914711;28;20108;-82
2022/12/10 08:35:42;;;;;;;31.45;13.90;;;;;;;-6.13;76.88;100340.44;4926454;28;20051;-82
2022/12/10 08:38:14;;;;;;;35.28;14.15;;;;;;;-6.24;77.20;100333.94;4914889;28;20053;-82
2022/12/10 08:40:46;;;;;;;31.00;15.35;;;;;;;-6.34;77.62;100347.84;4925394;28;20091;-81
2022/12/10 08:43:17;;;;;;;37.60;15.38;;;;;;;-6.42;77.66;100341.44;4924146;28;20051;-80
2022/12/10 08:45:48;;;;;;;33.42;13.95;;;;;;;-6.68;77.21;100332.47;4935719;28;20088;-80
2022/12/10 08:48:30;;;;;;;53.10;20.65;;;;;;;-6.92;76.98;100315.88;4925861;28;20048;-80
2022/12/10 08:51:25;;;;;;;61.35;25.13;;;;;;;-6.89;77.65;100346.53;4912085;28;20105;-81
2022/12/10 08:54:03;;;;;;;56.95;23.20;;;;;;;-6.99;77.50;100353.66;4919016;28;20108;-81
2022/12/10 08:56:40;;;;;;;52.03;21.88;;;;;;;-7.29;77.75;100329.09;4922194;28;20057;-81
2022/12/10 08:59:11;;;;;;;43.00;18.45;;;;;;;-7.22;78.17;100346.44;4929277;28;20054;-82
2022/12/10 09:01:45;;;;;;;38.05;17.15;;;;;;;-7.18;78.41;100363.59;4928646;28;20225;-82
2022/12/10 09:04:29;;;;;;;42.90;17.65;;;;;;;-7.47;78.15;100339.97;4915081;28;20051;-81
2022/12/10 09:07:11;;;;;;;31.40;13.93;;;;;;;-7.64;77.96;100330.50;4926486;28;20043;-81
2022/12/10 09:09:43;;;;;;;23.17;10.75;;;;;;;-7.58;78.12;100361.34;4917634;28;20058;-80
2022/12/10 09:12:16;;;;;;;22.70;11.75;;;;;;;-7.88;78.35;100330.88;4924015;28;20044;-81
2022/12/10 09:14:47;;;;;;;22.27;11.50;;;;;;;-7.70;79.27;100365.69;4918353;28;20125;-81
2022/12/10 09:17:18;;;;;;;18.20;9.88;;;;;;;-7.79;79.00;100370.22;4924136;28;20241;-80
2022/12/10 09:19:58;;;;;;;21.40;9.82;;;;;;;-7.77;79.39;100373.72;4926542;28;20041;-81
2022/12/10 09:22:47;;;;;;;17.00;8.50;;;;;;;-8.63;79.05;100252.97;4923437;28;20055;-81
2022/12/10 09:25:21;;;;;;;20.60;8.73;;;;;;;-8.19;78.69;100347.59;4914476;28;20092;-81
2022/12/10 09:27:57;;;;;;;16.20;7.95;;;;;;;-8.17;78.67;100366.31;4924529;28;20048;-81
2022/12/10 09:30:43;;;;;;;12.68;7.68;;;;;;;-8.37;78.39;100371.03;4914147;28;20044;-82
2022/12/10 09:33:14;;;;;;;19.30;8.63;;;;;;;-8.68;78.75;100350.59;4914297;28;20112;-81
2022/12/10 09:35:45;;;;;;;34.70;14.15;;;;;;;-8.72;78.91;100374.84;4923664;28;20328;-82
2022/12/10 09:38:18;;;;;;;37.15;17.20;;;;;;;-8.85;79.71;100352.09;4928745;28;20100;-81
2022/12/10 09:41:01;;;;;;;35.90;17.98;;;;;;;-8.82;79.65;100362.41;4930533;28;20336;-81
2022/12/10 09:43:51;;;;;;;55.80;31.02;;;;;;;-9.48;80.13;100289.03;4918788;28;20055;-81
2022/12/10 09:46:43;;;;;;;51.67;26.42;;;;;;;-9.01;80.13;100379.75;4912714;28;20052;-80
2022/12/10 09:49:26;;;;;;;56.05;27.90;;;;;;;-8.98;80.75;100379.97;4921761;28;20116;-81
2022/12/10 09:52:04;;;;;;;67.60;29.98;;;;;;;-9.02;80.98;100368.75;4917133;28;20056;-79
2022/12/10 09:54:46;;;;;;;24.60;11.50;;;;;;;-9.24;80.78;100346.25;4917906;28;20038;-81
2022/12/10 09:57:25;;;;;;;20.83;10.30;;;;;;;-9.28;80.92;100356.09;4918069;28;20042;-82
2022/12/10 10:00:19;;;;;;;30.58;14.50;;;;;;;-9.17;81.07;100381.31;4929877;28;20053;-79
2022/12/10 10:03:23;;;;;;;42.53;20.88;;;;;;;-9.27;81.65;100351.13;4917599;28;20053;-81
2022/12/10 10:06:17;;;;;;;49.08;22.08;;;;;;;-9.19;80.78;100389.59;4916042;28;20053;-81
2022/12/10 10:08:53;;;;;;;38.67;18.92;;;;;;;-9.30;80.18;100401.56;4921694;28;20086;-81
2022/12/10 10:11:52;;;;;;;32.10;12.27;;;;;;;-9.53;80.82;100406.75;4907035;28;20278;-80
2022/12/10 10:14:30;;;;;;;26.55;11.75;;;;;;;-10.03;81.43;100327.69;4930246;28;20074;-81
2022/12/10 10:17:09;;;;;;;24.83;10.43;;;;;;;-9.69;81.86;100370.34;4920670;28;20041;-80
2022/12/10 10:19:41;;;;;;;12.23;7.85;;;;;;;-9.47;82.49;100397.06;4923245;28;20099;-80
2022/12/10 10:22:16;;;;;;;43.38;17.92;;;;;;;-9.32;82.74;100398.03;4928569;28;20104;-80
2022/12/10 10:24:54;;;;;;;38.50;18.23;;;;;;;-9.25;82.85;100387.53;4918389;28;20396;-79
2022/12/10 10:27:33;;;;;;;14.73;8.57;;;;;;;-9.40;82.54;100379.84;4919508;28;20335;-80
2022/12/10 10:30:13;;;;;;;10.73;5.55;;;;;;;-9.25;82.76;100387.53;4928957;28;20068;-81
2022/12/10 10:32:52;;;;;;;8.15;4.78;;;;;;;-9.29;83.14;100378.00;4915311;28;20424;-81
2022/12/10 10:35:31;;;;;;;11.95;5.90;;;;;;;-9.25;83.92;100377.44;4915407;28;20050;-79
2022/12/10 10:38:12;;;;;;;7.53;4.18;;;;;;;-9.28;84.18;100354.47;4923657;28;20048;-79
2022/12/10 10:40:47;;;;;;;7.72;4.30;;;;;;;-9.14;84.38;100368.84;4913708;28;20063;-81
2022/12/10 10:43:26;;;;;;;10.95;4.25;;;;;;;-9.07;84.42;100361.66;4913810;28;20124;-81
2022/12/10 10:46:04;;;;;;;6.95;3.88;;;;;;;-8.94;84.43;100371.75;4916825;28;20329;-80
2022/12/10 10:48:37;;;;;;;7.93;4.10;;;;;;;-8.86;84.19;100372.25;4923547;28;20075;-81
2022/12/10 10:51:18;;;;;;;5.30;3.17;;;;;;;-8.93;84.20;100350.75;4924827;28;20074;-80
2022/12/10 10:53:54;;;;;;;6.55;3.80;;;;;;;-8.88;84.17;100351.91;4913687;28;20136;-80
2022/12/10 10:56:29;;;;;;;5.45;3.40;;;;;;;-9.03;83.86;100312.97;4928463;28;20060;-78
2022/12/10 10:59:29;;;;;;;27.80;9.93;;;;;;;-8.74;83.66;100351.09;4913757;28;20048;-82
2022/12/10 11:02:16;;;;;;;19.95;9.02;;;;;;;-8.62;83.67;100360.25;4898326;28;20076;-82
2022/12/10 11:04:53;;;;;;;26.23;9.73;;;;;;;-8.61;83.41;100349.31;4928364;28;20131;-80
2022/12/10 11:07:53;;;;;;;58.53;20.13;;;;;;;-8.37;84.14;100358.38;4928479;28;20109;-80
2022/12/10 11:10:38;;;;;;;19.95;8.93;;;;;;;-8.40;83.67;100321.88;4904305;28;20041;-81
2022/12/10 11:13:36;;;;;;;18.88;7.80;;;;;;;-8.08;83.07;100366.88;4925524;28;20046;-81
2022/12/10 11:16:22;;;;;;;32.72;15.70;;;;;;;-8.18;81.56;100374.72;4911899;28;20115;-81
2022/12/10 11:19:04;;;;;;;41.88;16.30;;;;;;;-8.38;80.42;100387.03;4912909;28;20240;-80
2022/12/10 11:21:38;;;;;;;42.65;16.20;;;;;;;-8.54;79.55;100385.25;4924205;28;20054;-79
2022/12/10 11:24:14;;;;;;;61.00;22.13;;;;;;;-8.52;80.00;100387.88;4929445;28;20055;-81
2022/12/10 11:27:16;;;;;;;49.05;17.92;;;;;;;-8.32;81.22;100379.81;4931505;28;20297;-81
2022/12/10 11:29:56;;;;;;;28.67;14.20;;;;;;;-8.72;81.05;100293.81;4916285;28;20069;-80
2022/12/10 11:32:56;;;;;;;22.63;10.60;;;;;;;-8.07;81.22;100386.34;4919066;28;20046;-81
2022/12/10 11:35:42;;;;;;;16.20;7.55;;;;;;;-8.14;80.83;100382.56;4904125;28;20427;-80
2022/12/10 11:38:25;;;;;;;15.88;6.70;;;;;;;-7.98;81.12;100375.91;4920690;28;20051;-79
2022/12/10 11:41:03;;;;;;;10.73;6.13;;;;;;;-8.19;80.21;100360.25;4911540;28;20108;-79
2022/12/10 11:43:48;;;;;;;13.38;6.57;;;;;;;-8.07;79.74;100363.53;4924160;28;20041;-79
2022/12/10 11:46:49;;;;;;;14.50;6.82;;;;;;;-7.97;79.02;100386.13;4911714;28;20264;-80
2022/12/10 11:49:31;;;;;;;11.43;6.35;;;;;;;-8.10;78.46;100388.72;4912781;28;20078;-81
2022/12/10 11:52:14;;;;;;;14.07;6.88;;;;;;;-8.18;78.68;100379.78;4922430;28;20067;-80
2022/12/10 11:55:04;;;;;;;14.73;9.23;;;;;;;-8.23;78.51;100371.91;4916180;28;20078;-80
2022/12/10 11:57:52;;;;;;;13.38;6.60;;;;;;;-8.28;78.96;100374.16;4914902;28;20064;-80
2022/12/10 12:00:27;;;;;;;15.55;7.57;;;;;;;-8.29;79.49;100368.97;4918035;28;20051;-80
2022/12/10 12:03:30;;;;;;;17.15;8.13;;;;;;;-8.29;80.30;100374.03;4925771;28;20217;-80
2022/12/10 12:06:17;;;;;;;12.73;5.60;;;;;;;-8.35;80.35;100366.94;4924634;28;20046;-80
2022/12/10 12:08:59;;;;;;;14.25;5.35;;;;;;;-8.45;80.84;100354.53;4916368;28;20172;-80
2022/12/10 12:11:54;;;;;;;12.93;5.80;;;;;;;-8.31;81.26;100363.84;4917229;28;20407;-79
2022/12/10 12:14:30;;;;;;;11.88;6.05;;;;;;;-8.04;82.00;100378.91;4912572;28;20247;-80
2022/12/10 12:17:09;;;;;;;21.98;10.07;;;;;;;-8.55;81.57;100273.69;4915348;28;20044;-80
2022/12/10 12:19:49;;;;;;;23.23;11.07;;;;;;;-7.91;81.23;100373.81;4914524;28;20037;-79
2022/12/10 12:22:27;;;;;;;19.88;9.45;;;;;;;-8.03;81.58;100330.84;4915285;28;20048;-80
2022/12/10 12:25:04;;;;;;;94.72;35.63;;;;;;;-7.70;81.47;100370.78;4915371;28;20347;-80